KTPA

Tampa International Airport

Tampa, Florida, USA
METAR KTPA 191053Z 00000KT 10SM FEW070 FEW280 28/22 A2995 RMK AO2 SLP141 T02780222
Observed Flight Rules
Sep-19 @ 10:53 UTC (44 minutes ago) Visual Flight Rules
Visibility Clouds
10 miles
  • Few at 7,000' AGL
  • Few at 28,000' AGL
Temperatures Readings
Current 28°C / 82°F
Dewpoint 22°C / 72°F
Humidity 70%
Altimeter 29.95" Hg
Pressure 1014.1 hPa
Elevation 11
METAR KTPA 191053Z 00000KT 10SM FEW070 FEW280 28/22 A2995 RMK AO2 SLP141 T02780222
Observed Flight Rules
Sep-19 @ 10:53 UTC
(44 minutes ago)
VFR
Clouds
  • Few at 7,000' AGL
  • Few at 28,000' AGL
Temperature Dewpoint
28°C / 82°F 22°C / 72°F
Humidity Altimeter Pressure
70% 29.95" Hg 1014.1 hPa